Archival Weather

Republic

Farmingdale, New York (KFRG)

Report from: Saturday, February 24, 2024 11:53 AM EST
Current time: Friday, June 21, 2024 4:51 AM EDT

Current weather – Weather history – Daily summaries
Weather forecast

Temperature5.6°C (42.1°F)
Wind chill2.8°C (37.1°F)
Dew point-2.8°C (27.0°F)
Winds 7 kts (3.6 m/s, 8.1 mph) North-Northwest (330°)
Visibility10 mi. (16.1 km)
Clouds Ceiling: Overcast 3,200 ft. (975 m)
Altimeter29.67 in.Hg (1005 mB)
Relative humidity55 %
Density altitude-764 ft. (-233 m)
Sea-level pressure100.5 kPa (1005 mB, 29.67 in.Hg)
Remarks Automated weather observing station without precipitation discriminator
Flight conditions Visual Meteorological Conditions
Raw dataKFRG 241653Z 33007KT 10SM OVC032 06/M03 A2967 RMK AO1 SLP047 T00561028
An error has occurred. This application may no longer respond until reloaded. Reload 🗙